createdAt,value
2022-11-27T00:00:10.000Z,88.98
2022-11-27T00:01:15.000Z,89.31
2022-11-27T00:02:09.000Z,89.15
2022-11-27T00:03:09.000Z,89.04
2022-11-27T00:04:10.000Z,89.66
2022-11-27T00:05:09.000Z,89.58
2022-11-27T00:06:15.000Z,89.73
2022-11-27T00:07:09.000Z,89.75
2022-11-27T00:08:09.000Z,89.68
2022-11-27T00:09:12.000Z,89.95
2022-11-27T00:10:10.000Z,89.96
2022-11-27T00:11:19.000Z,89.95
2022-11-27T00:12:09.000Z,89.93
2022-11-27T00:13:09.000Z,90.13
2022-11-27T00:14:11.000Z,90.38
2022-11-27T00:15:09.000Z,90.40
2022-11-27T00:16:11.000Z,90.24
2022-11-27T00:17:09.000Z,90.05
2022-11-27T00:18:09.000Z,90.29
2022-11-27T00:19:10.000Z,90.19
2022-11-27T00:20:10.000Z,90.36
2022-11-27T00:21:12.000Z,90.10
2022-11-27T00:22:09.000Z,90.02
2022-11-27T00:23:09.000Z,90.06
2022-11-27T00:24:10.000Z,90.00
2022-11-27T00:25:09.000Z,90.16
2022-11-27T00:26:10.000Z,90.20
2022-11-27T00:27:10.000Z,90.15
2022-11-27T00:28:09.000Z,90.07
2022-11-27T00:29:09.000Z,90.09
2022-11-27T00:30:09.000Z,90.08
2022-11-27T00:31:25.000Z,90.04
2022-11-27T00:32:09.000Z,89.97
2022-11-27T00:33:09.000Z,90.14
2022-11-27T00:34:09.000Z,90.03
2022-11-27T00:35:09.000Z,90.12
2022-11-27T00:36:10.000Z,90.24
2022-11-27T00:37:10.000Z,90.16
2022-11-27T00:38:09.000Z,90.00
2022-11-27T00:39:09.000Z,89.98
2022-11-27T00:40:10.000Z,90.02
2022-11-27T00:41:17.000Z,90.18
2022-11-27T00:42:09.000Z,90.16
2022-11-27T00:43:09.000Z,90.33
2022-11-27T00:44:10.000Z,90.28
2022-11-27T00:45:10.000Z,90.01
2022-11-27T00:46:10.000Z,90.31
2022-11-27T00:47:09.000Z,90.13
2022-11-27T00:48:09.000Z,90.07
2022-11-27T00:49:12.000Z,90.18
2022-11-27T00:50:09.000Z,90.25
2022-11-27T00:51:13.000Z,90.18
2022-11-27T00:52:09.000Z,90.27
2022-11-27T00:53:09.000Z,90.13
2022-11-27T00:54:09.000Z,90.05
2022-11-27T00:55:10.000Z,89.99
2022-11-27T00:56:15.000Z,89.95
2022-11-27T00:57:09.000Z,90.16
2022-11-27T00:58:09.000Z,90.33
2022-11-27T00:59:09.000Z,90.21
2022-11-27T01:00:10.000Z,90.03
2022-11-27T01:01:16.000Z,90.08
2022-11-27T01:02:09.000Z,90.25
2022-11-27T01:03:09.000Z,90.12
2022-11-27T01:04:12.000Z,90.08
2022-11-27T01:05:09.000Z,90.12
2022-11-27T01:06:09.000Z,89.95
2022-11-27T01:07:08.000Z,89.93
2022-11-27T01:08:08.000Z,90.02
2022-11-27T01:09:11.000Z,89.84
2022-11-27T01:10:09.000Z,90.12
2022-11-27T01:11:15.000Z,90.35
2022-11-27T01:12:09.000Z,90.10
2022-11-27T01:13:08.000Z,90.07
2022-11-27T01:14:14.000Z,90.23
2022-11-27T01:15:09.000Z,90.21
2022-11-27T01:16:12.000Z,90.43
2022-11-27T01:17:09.000Z,90.19
2022-11-27T01:18:09.000Z,90.26
2022-11-27T01:19:11.000Z,90.15
2022-11-27T01:20:09.000Z,90.28
2022-11-27T01:21:10.000Z,90.12
2022-11-27T01:22:09.000Z,90.13
2022-11-27T01:23:09.000Z,90.34
2022-11-27T01:24:10.000Z,90.19
2022-11-27T01:25:08.000Z,90.20
2022-11-27T01:26:10.000Z,90.13
2022-11-27T01:27:08.000Z,90.22
2022-11-27T01:28:08.000Z,90.08
2022-11-27T01:29:09.000Z,89.90
2022-11-27T01:30:09.000Z,90.16
2022-11-27T01:31:18.000Z,90.19
2022-11-27T01:32:09.000Z,90.02
2022-11-27T01:33:09.000Z,89.90
2022-11-27T01:34:13.000Z,90.03
2022-11-27T01:35:08.000Z,90.35
2022-11-27T01:36:11.000Z,90.19
2022-11-27T01:37:09.000Z,90.36
2022-11-27T01:38:09.000Z,90.27
2022-11-27T01:39:17.000Z,90.41
2022-11-27T01:40:09.000Z,90.55
2022-11-27T01:41:16.000Z,90.32
2022-11-27T01:42:09.000Z,90.40
2022-11-27T01:43:13.000Z,90.39
2022-11-27T01:44:19.000Z,90.22
2022-11-27T01:45:12.000Z,90.10
2022-11-27T01:46:23.000Z,89.96
2022-11-27T01:47:16.000Z,89.93
2022-11-27T01:48:11.000Z,90.06
2022-11-27T01:49:24.000Z,90.11
2022-11-27T01:50:14.000Z,90.12
2022-11-27T01:51:09.000Z,89.97
2022-11-27T01:52:13.000Z,90.17
2022-11-27T01:53:14.000Z,90.13
2022-11-27T01:54:09.000Z,90.26
2022-11-27T01:55:18.000Z,90.12
2022-11-27T01:56:09.000Z,90.01
2022-11-27T01:57:16.000Z,89.99
2022-11-27T01:58:12.000Z,90.15
2022-11-27T01:59:10.000Z,89.98
2022-11-27T02:00:11.000Z,90.10
2022-11-27T02:01:09.000Z,90.19
2022-11-27T02:02:09.000Z,90.18
2022-11-27T02:03:09.000Z,90.18
2022-11-27T02:04:09.000Z,90.13
2022-11-27T02:05:13.000Z,90.00
2022-11-27T02:06:12.000Z,90.05
2022-11-27T02:07:09.000Z,90.18
2022-11-27T02:08:12.000Z,90.22
2022-11-27T02:09:09.000Z,90.31
2022-11-27T02:10:10.000Z,90.21
2022-11-27T02:11:21.000Z,90.35
2022-11-27T02:12:23.000Z,90.29
2022-11-27T02:13:14.000Z,90.32
2022-11-27T02:14:29.000Z,90.50
2022-11-27T02:15:28.000Z,90.37
2022-11-27T02:16:19.000Z,90.44
2022-11-27T02:17:19.000Z,90.30
2022-11-27T02:18:20.000Z,90.50
2022-11-27T02:19:29.000Z,90.42
2022-11-27T02:20:20.000Z,90.28
2022-11-27T02:21:19.000Z,90.15
2022-11-27T02:22:29.000Z,90.26
2022-11-27T02:23:19.000Z,90.35
2022-11-27T02:24:23.000Z,90.37
2022-11-27T02:25:19.000Z,90.33
2022-11-27T02:26:31.000Z,90.24
2022-11-27T02:27:19.000Z,90.15
2022-11-27T02:28:39.000Z,90.01
2022-11-27T02:29:14.000Z,90.04
2022-11-27T02:30:10.000Z,90.00
2022-11-27T02:31:23.000Z,90.07
2022-11-27T02:32:22.000Z,90.12
2022-11-27T02:33:10.000Z,90.12
2022-11-27T02:34:20.000Z,90.20
2022-11-27T02:35:18.000Z,89.88
2022-11-27T02:36:15.000Z,90.04
2022-11-27T02:37:32.000Z,90.06
2022-11-27T02:38:14.000Z,90.24
2022-11-27T02:39:15.000Z,90.15
2022-11-27T02:40:19.000Z,89.97
2022-11-27T02:41:29.000Z,90.22
2022-11-27T02:42:14.000Z,90.06
2022-11-27T02:43:16.000Z,90.05
2022-11-27T02:44:09.000Z,90.02
2022-11-27T02:45:12.000Z,90.04
2022-11-27T02:46:09.000Z,89.97
2022-11-27T02:47:10.000Z,90.04
2022-11-27T02:48:11.000Z,90.17
2022-11-27T02:49:12.000Z,90.48
2022-11-27T02:50:13.000Z,90.05
2022-11-27T02:51:11.000Z,89.90
2022-11-27T02:52:10.000Z,89.99
2022-11-27T02:53:13.000Z,89.88
2022-11-27T02:54:13.000Z,89.90
2022-11-27T02:55:12.000Z,90.12
2022-11-27T02:56:13.000Z,90.11
2022-11-27T02:57:11.000Z,90.16
2022-11-27T02:58:13.000Z,90.05
2022-11-27T02:59:11.000Z,89.92
2022-11-27T03:00:10.000Z,89.94
2022-11-27T03:01:10.000Z,89.81
2022-11-27T03:02:15.000Z,89.75
2022-11-27T03:03:12.000Z,89.65
2022-11-27T03:04:14.000Z,89.65
2022-11-27T03:05:13.000Z,89.71
2022-11-27T03:06:16.000Z,89.84
2022-11-27T03:07:20.000Z,89.85
2022-11-27T03:08:21.000Z,89.89
2022-11-27T03:09:16.000Z,89.85
2022-11-27T03:10:17.000Z,89.69
2022-11-27T03:11:12.000Z,89.73
2022-11-27T03:12:10.000Z,89.51
2022-11-27T03:13:09.000Z,89.53
2022-11-27T03:14:12.000Z,89.57
2022-11-27T03:15:09.000Z,89.53
2022-11-27T03:16:19.000Z,89.54
2022-11-27T03:17:24.000Z,89.52
2022-11-27T03:18:30.000Z,89.41
2022-11-27T03:19:16.000Z,89.31
2022-11-27T03:20:19.000Z,89.30
2022-11-27T03:21:21.000Z,89.25
2022-11-27T03:22:09.000Z,89.26
2022-11-27T03:23:09.000Z,89.14
2022-11-27T03:24:10.000Z,89.25
2022-11-27T03:25:09.000Z,89.13
2022-11-27T03:26:09.000Z,89.15
2022-11-27T03:27:13.000Z,89.21
2022-11-27T03:28:12.000Z,89.01
2022-11-27T03:29:42.000Z,88.92
2022-11-27T03:30:10.000Z,88.93
2022-11-27T03:31:09.000Z,88.94
2022-11-27T03:32:09.000Z,88.79
2022-11-27T03:33:08.000Z,88.62
2022-11-27T03:34:09.000Z,88.60
2022-11-27T03:35:12.000Z,88.56
2022-11-27T03:36:15.000Z,88.65
2022-11-27T03:37:09.000Z,88.48
2022-11-27T03:38:08.000Z,88.49
2022-11-27T03:39:08.000Z,88.63
2022-11-27T03:40:09.000Z,88.64
2022-11-27T03:41:44.000Z,88.51
2022-11-27T03:42:18.000Z,88.61
2022-11-27T03:43:16.000Z,88.70
2022-11-27T03:44:32.000Z,88.71
2022-11-27T03:45:41.000Z,88.67
2022-11-27T03:46:17.000Z,88.62
2022-11-27T03:47:24.000Z,88.65
2022-11-27T03:48:21.000Z,88.82
2022-11-27T03:49:23.000Z,88.91
2022-11-27T03:50:19.000Z,88.89
2022-11-27T03:51:20.000Z,89.05
2022-11-27T03:52:27.000Z,89.14
2022-11-27T03:53:29.000Z,89.09
2022-11-27T03:54:18.000Z,89.02
2022-11-27T03:55:26.000Z,88.90
2022-11-27T03:56:25.000Z,88.93
2022-11-27T03:57:21.000Z,88.99
2022-11-27T03:58:17.000Z,88.94
2022-11-27T03:59:16.000Z,88.88
2022-11-27T04:00:11.000Z,88.97
2022-11-27T04:01:13.000Z,88.89
2022-11-27T04:02:12.000Z,88.84
2022-11-27T04:03:10.000Z,88.72
2022-11-27T04:04:08.000Z,88.78
2022-11-27T04:05:09.000Z,88.80
2022-11-27T04:06:10.000Z,88.67
2022-11-27T04:07:14.000Z,88.72
2022-11-27T04:08:08.000Z,87.87
2022-11-27T04:09:08.000Z,88.39
2022-11-27T04:10:09.000Z,88.43
2022-11-27T04:11:08.000Z,88.14
2022-11-27T04:12:08.000Z,87.79
2022-11-27T04:13:08.000Z,88.18
2022-11-27T04:14:08.000Z,88.11
2022-11-27T04:15:09.000Z,88.09
2022-11-27T04:16:08.000Z,87.99
2022-11-27T04:17:08.000Z,87.60
2022-11-27T04:18:08.000Z,87.89
2022-11-27T04:19:08.000Z,87.85
2022-11-27T04:20:13.000Z,88.08
2022-11-27T04:21:08.000Z,87.79
2022-11-27T04:22:08.000Z,87.68
2022-11-27T04:23:08.000Z,87.56
2022-11-27T04:24:08.000Z,87.07
2022-11-27T04:25:08.000Z,87.27
2022-11-27T04:26:09.000Z,87.08
2022-11-27T04:27:08.000Z,87.34
2022-11-27T04:28:08.000Z,87.08
2022-11-27T04:29:08.000Z,87.20
2022-11-27T04:30:09.000Z,87.62
2022-11-27T04:31:08.000Z,87.68
2022-11-27T04:32:09.000Z,87.76
2022-11-27T04:33:08.000Z,87.69
2022-11-27T04:34:09.000Z,87.63
2022-11-27T04:35:09.000Z,87.57
2022-11-27T04:36:09.000Z,87.57
2022-11-27T04:37:09.000Z,87.68
2022-11-27T04:38:09.000Z,87.73
2022-11-27T04:39:08.000Z,87.32
2022-11-27T04:40:09.000Z,87.26
2022-11-27T04:41:08.000Z,87.53
2022-11-27T04:42:09.000Z,87.72
2022-11-27T04:43:09.000Z,87.19
2022-11-27T04:44:10.000Z,87.31
2022-11-27T04:45:09.000Z,87.90
2022-11-27T04:46:08.000Z,88.00
2022-11-27T04:47:08.000Z,88.08
2022-11-27T04:48:09.000Z,88.06
2022-11-27T04:49:09.000Z,87.84
2022-11-27T04:50:09.000Z,87.84
2022-11-27T04:51:09.000Z,88.33
2022-11-27T04:52:09.000Z,88.08
2022-11-27T04:53:09.000Z,88.27
2022-11-27T04:54:09.000Z,88.47
2022-11-27T04:55:09.000Z,88.60
2022-11-27T04:56:08.000Z,88.87
2022-11-27T04:57:08.000Z,89.03
2022-11-27T04:58:08.000Z,89.00
2022-11-27T04:59:09.000Z,88.95
2022-11-27T05:00:10.000Z,89.22
2022-11-27T05:01:09.000Z,89.15
2022-11-27T05:02:09.000Z,89.14
2022-11-27T05:03:08.000Z,89.20
2022-11-27T05:04:09.000Z,89.21
2022-11-27T05:05:09.000Z,89.38
2022-11-27T05:06:08.000Z,89.32
2022-11-27T05:07:09.000Z,89.52
2022-11-27T05:08:09.000Z,89.40
2022-11-27T05:09:08.000Z,89.39
2022-11-27T05:10:09.000Z,89.46
2022-11-27T05:11:12.000Z,89.48
2022-11-27T05:12:08.000Z,89.35
2022-11-27T05:13:08.000Z,89.08
2022-11-27T05:14:14.000Z,89.11
2022-11-27T05:15:09.000Z,89.16
2022-11-27T05:16:09.000Z,89.16
2022-11-27T05:17:09.000Z,89.13
2022-11-27T05:18:08.000Z,89.20
2022-11-27T05:19:09.000Z,89.20
2022-11-27T05:20:09.000Z,89.11
2022-11-27T05:21:08.000Z,89.02
2022-11-27T05:22:09.000Z,88.98
2022-11-27T05:23:08.000Z,89.01
2022-11-27T05:24:09.000Z,88.95
2022-11-27T05:25:08.000Z,88.97
2022-11-27T05:26:08.000Z,89.01
2022-11-27T05:27:08.000Z,88.95
2022-11-27T05:28:08.000Z,88.94
2022-11-27T05:29:09.000Z,89.00
2022-11-27T05:30:09.000Z,88.81
2022-11-27T05:31:08.000Z,88.90
2022-11-27T05:32:09.000Z,88.82
2022-11-27T05:33:08.000Z,88.83
2022-11-27T05:34:09.000Z,88.76
2022-11-27T05:35:08.000Z,88.82
2022-11-27T05:36:09.000Z,88.66
2022-11-27T05:37:11.000Z,88.76
2022-11-27T05:38:08.000Z,88.81
2022-11-27T05:39:09.000Z,88.59
2022-11-27T05:40:09.000Z,88.82
2022-11-27T05:41:09.000Z,88.82
2022-11-27T05:42:08.000Z,88.68
2022-11-27T05:43:09.000Z,88.88
2022-11-27T05:44:10.000Z,88.92
2022-11-27T05:45:09.000Z,88.89
2022-11-27T05:46:11.000Z,89.00
2022-11-27T05:47:08.000Z,89.03
2022-11-27T05:48:08.000Z,89.10
2022-11-27T05:49:13.000Z,89.09
2022-11-27T05:50:09.000Z,89.04
2022-11-27T05:51:09.000Z,89.12
2022-11-27T05:52:08.000Z,89.24
2022-11-27T05:53:08.000Z,89.14
2022-11-27T05:54:09.000Z,89.16
2022-11-27T05:55:09.000Z,89.16
2022-11-27T05:56:14.000Z,88.95
2022-11-27T05:57:08.000Z,89.16
2022-11-27T05:58:08.000Z,89.31
2022-11-27T05:59:09.000Z,89.33
2022-11-27T06:00:10.000Z,89.33
2022-11-27T06:01:10.000Z,89.61
2022-11-27T06:02:08.000Z,89.66
2022-11-27T06:03:09.000Z,89.67
2022-11-27T06:04:08.000Z,89.80
2022-11-27T06:05:08.000Z,89.77
2022-11-27T06:06:15.000Z,89.90
2022-11-27T06:07:09.000Z,89.99
2022-11-27T06:08:09.000Z,89.89
2022-11-27T06:09:08.000Z,90.12
2022-11-27T06:10:09.000Z,90.25
2022-11-27T06:11:11.000Z,90.15
2022-11-27T06:12:09.000Z,89.95
2022-11-27T06:13:09.000Z,89.87
2022-11-27T06:14:09.000Z,89.69
2022-11-27T06:15:09.000Z,89.80
2022-11-27T06:16:14.000Z,89.99
2022-11-27T06:17:08.000Z,90.17
2022-11-27T06:18:09.000Z,90.18
2022-11-27T06:19:08.000Z,90.24
2022-11-27T06:20:09.000Z,90.38
2022-11-27T06:21:11.000Z,90.52
2022-11-27T06:22:09.000Z,90.63
2022-11-27T06:23:09.000Z,90.68
2022-11-27T06:24:09.000Z,90.66
2022-11-27T06:25:08.000Z,90.73
2022-11-27T06:26:15.000Z,90.63
2022-11-27T06:27:09.000Z,90.50
2022-11-27T06:28:08.000Z,90.61
2022-11-27T06:29:09.000Z,90.55
2022-11-27T06:30:09.000Z,90.52
2022-11-27T06:31:12.000Z,90.36
2022-11-27T06:32:08.000Z,90.21
2022-11-27T06:33:08.000Z,89.99
2022-11-27T06:34:10.000Z,90.13
2022-11-27T06:35:09.000Z,90.11
2022-11-27T06:36:09.000Z,90.07
2022-11-27T06:37:08.000Z,90.12
2022-11-27T06:38:08.000Z,90.22
2022-11-27T06:39:09.000Z,90.22
2022-11-27T06:40:09.000Z,90.22
2022-11-27T06:41:12.000Z,89.97
2022-11-27T06:42:08.000Z,90.08
2022-11-27T06:43:08.000Z,90.14
2022-11-27T06:44:09.000Z,90.06
2022-11-27T06:45:09.000Z,90.23
2022-11-27T06:46:15.000Z,90.11
2022-11-27T06:47:08.000Z,90.30
2022-11-27T06:48:08.000Z,90.30
2022-11-27T06:49:11.000Z,90.25
2022-11-27T06:50:09.000Z,90.34
2022-11-27T06:51:11.000Z,90.30
2022-11-27T06:52:08.000Z,90.42
2022-11-27T06:53:08.000Z,90.56
2022-11-27T06:54:08.000Z,90.59
2022-11-27T06:55:08.000Z,90.50
2022-11-27T06:56:14.000Z,90.47
2022-11-27T06:57:11.000Z,90.32
2022-11-27T06:58:09.000Z,90.29
2022-11-27T06:59:10.000Z,90.32
2022-11-27T07:00:09.000Z,90.19
2022-11-27T07:01:13.000Z,90.23
2022-11-27T07:02:12.000Z,90.27
2022-11-27T07:03:08.000Z,90.36
2022-11-27T07:04:10.000Z,90.48
2022-11-27T07:05:08.000Z,90.48
2022-11-27T07:06:10.000Z,90.40
2022-11-27T07:07:08.000Z,90.65
2022-11-27T07:08:08.000Z,90.70
2022-11-27T07:09:08.000Z,90.68
2022-11-27T07:10:09.000Z,90.79
2022-11-27T07:11:12.000Z,90.89
2022-11-27T07:12:08.000Z,90.81
2022-11-27T07:13:08.000Z,90.73
2022-11-27T07:14:08.000Z,90.76
2022-11-27T07:15:08.000Z,90.65
2022-11-27T07:16:10.000Z,90.61
2022-11-27T07:17:08.000Z,90.60
2022-11-27T07:18:09.000Z,90.61
2022-11-27T07:19:09.000Z,90.68
2022-11-27T07:20:09.000Z,90.59
2022-11-27T07:21:09.000Z,90.61
2022-11-27T07:22:08.000Z,90.52
2022-11-27T07:23:08.000Z,90.54
2022-11-27T07:24:08.000Z,90.74
2022-11-27T07:25:08.000Z,90.68
2022-11-27T07:26:20.000Z,90.82
2022-11-27T07:27:08.000Z,90.75
2022-11-27T07:28:08.000Z,91.04
2022-11-27T07:29:08.000Z,90.99
2022-11-27T07:30:09.000Z,91.14
2022-11-27T07:31:10.000Z,91.09
2022-11-27T07:32:08.000Z,91.09
2022-11-27T07:33:08.000Z,91.13
2022-11-27T07:34:08.000Z,91.05
2022-11-27T07:35:08.000Z,91.17
2022-11-27T07:36:20.000Z,91.24
2022-11-27T07:37:08.000Z,91.25
2022-11-27T07:38:08.000Z,91.25
2022-11-27T07:39:08.000Z,91.52
2022-11-27T07:40:09.000Z,91.33
2022-11-27T07:41:09.000Z,91.41
2022-11-27T07:42:09.000Z,91.47
2022-11-27T07:43:08.000Z,91.62
2022-11-27T07:44:09.000Z,91.49
2022-11-27T07:45:10.000Z,91.74
2022-11-27T07:46:12.000Z,91.60
2022-11-27T07:47:08.000Z,91.94
2022-11-27T07:48:08.000Z,91.73
2022-11-27T07:49:08.000Z,91.77
2022-11-27T07:50:09.000Z,91.78
2022-11-27T07:51:11.000Z,91.86
2022-11-27T07:52:08.000Z,91.72
2022-11-27T07:53:08.000Z,91.74
2022-11-27T07:54:09.000Z,91.62
2022-11-27T07:55:09.000Z,91.46
2022-11-27T07:56:11.000Z,91.42
2022-11-27T07:57:08.000Z,91.45
2022-11-27T07:58:08.000Z,91.45
2022-11-27T07:59:08.000Z,91.38
2022-11-27T08:00:09.000Z,91.36
2022-11-27T08:01:11.000Z,91.42
2022-11-27T08:02:12.000Z,91.15
2022-11-27T08:03:09.000Z,91.01
2022-11-27T08:04:08.000Z,91.07
2022-11-27T08:05:09.000Z,91.09
2022-11-27T08:06:13.000Z,91.10
2022-11-27T08:07:08.000Z,91.06
2022-11-27T08:08:08.000Z,90.99
2022-11-27T08:09:08.000Z,91.01
2022-11-27T08:10:09.000Z,90.82
2022-11-27T08:11:18.000Z,90.90
2022-11-27T08:12:08.000Z,90.98
2022-11-27T08:13:09.000Z,91.08
2022-11-27T08:14:11.000Z,91.09
2022-11-27T08:15:09.000Z,91.07
2022-11-27T08:16:08.000Z,91.04
2022-11-27T08:17:11.000Z,91.25
2022-11-27T08:18:08.000Z,90.98
2022-11-27T08:19:09.000Z,90.93
2022-11-27T08:20:09.000Z,91.06
2022-11-27T08:21:08.000Z,90.90
2022-11-27T08:22:11.000Z,90.91
2022-11-27T08:23:08.000Z,90.94
2022-11-27T08:24:08.000Z,91.05
2022-11-27T08:25:08.000Z,90.77
2022-11-27T08:26:10.000Z,90.80
2022-11-27T08:27:09.000Z,90.75
2022-11-27T08:28:08.000Z,90.82
2022-11-27T08:29:10.000Z,90.77
2022-11-27T08:30:09.000Z,90.55
2022-11-27T08:31:11.000Z,90.68
2022-11-27T08:32:09.000Z,90.75
2022-11-27T08:33:11.000Z,90.70
2022-11-27T08:34:08.000Z,90.71
2022-11-27T08:35:10.000Z,90.78
2022-11-27T08:36:08.000Z,90.65
2022-11-27T08:37:08.000Z,90.62
2022-11-27T08:38:08.000Z,90.61
2022-11-27T08:39:08.000Z,90.41
2022-11-27T08:40:09.000Z,90.54
2022-11-27T08:41:09.000Z,90.50
2022-11-27T08:42:08.000Z,90.35
2022-11-27T08:43:08.000Z,90.35
2022-11-27T08:44:08.000Z,90.16
2022-11-27T08:45:08.000Z,90.31
2022-11-27T08:46:09.000Z,90.31
2022-11-27T08:47:08.000Z,90.23
2022-11-27T08:48:08.000Z,90.10
2022-11-27T08:49:08.000Z,90.26
2022-11-27T08:50:08.000Z,90.12
2022-11-27T08:51:13.000Z,89.89
2022-11-27T08:52:09.000Z,89.87
2022-11-27T08:53:09.000Z,89.44
2022-11-27T08:54:08.000Z,89.67
2022-11-27T08:55:08.000Z,89.69
2022-11-27T08:56:17.000Z,89.62
2022-11-27T08:57:08.000Z,89.72
2022-11-27T08:58:09.000Z,89.67
2022-11-27T08:59:08.000Z,89.62
2022-11-27T09:00:09.000Z,89.40
2022-11-27T09:01:13.000Z,89.54
2022-11-27T09:02:10.000Z,89.38
2022-11-27T09:03:09.000Z,89.27
2022-11-27T09:04:08.000Z,89.32
2022-11-27T09:05:08.000Z,88.93
2022-11-27T09:06:11.000Z,89.12
2022-11-27T09:07:14.000Z,89.05
2022-11-27T09:08:09.000Z,88.73
2022-11-27T09:09:09.000Z,88.54
2022-11-27T09:10:09.000Z,88.60
2022-11-27T09:11:11.000Z,88.81
2022-11-27T09:12:09.000Z,88.83
2022-11-27T09:13:09.000Z,88.94
2022-11-27T09:14:10.000Z,88.77
2022-11-27T09:15:10.000Z,88.84
2022-11-27T09:16:12.000Z,88.79
2022-11-27T09:17:09.000Z,88.42
2022-11-27T09:18:09.000Z,88.40
2022-11-27T09:19:09.000Z,88.59
2022-11-27T09:20:09.000Z,88.41
2022-11-27T09:21:10.000Z,88.42
2022-11-27T09:22:09.000Z,88.24
2022-11-27T09:23:09.000Z,87.95
2022-11-27T09:24:09.000Z,87.97
2022-11-27T09:25:09.000Z,88.29
2022-11-27T09:26:12.000Z,87.87
2022-11-27T09:27:09.000Z,88.00
2022-11-27T09:28:09.000Z,88.17
2022-11-27T09:29:09.000Z,87.85
2022-11-27T09:30:10.000Z,87.90
2022-11-27T09:31:12.000Z,87.85
2022-11-27T09:32:09.000Z,87.96
2022-11-27T09:33:09.000Z,87.86
2022-11-27T09:34:09.000Z,87.87
2022-11-27T09:35:09.000Z,87.87
2022-11-27T09:36:17.000Z,88.12
2022-11-27T09:37:08.000Z,88.08
2022-11-27T09:38:08.000Z,88.18
2022-11-27T09:39:08.000Z,88.19
2022-11-27T09:40:13.000Z,88.31
2022-11-27T09:41:18.000Z,87.87
2022-11-27T09:42:21.000Z,87.47
2022-11-27T09:43:10.000Z,87.57
2022-11-27T09:44:18.000Z,87.67
2022-11-27T09:45:12.000Z,87.49
2022-11-27T09:46:16.000Z,87.44
2022-11-27T09:47:18.000Z,87.52
2022-11-27T09:48:19.000Z,87.47
2022-11-27T09:49:22.000Z,87.50
2022-11-27T09:50:18.000Z,87.47
2022-11-27T09:51:19.000Z,87.62
2022-11-27T09:52:17.000Z,87.53
2022-11-27T09:53:21.000Z,87.30
2022-11-27T09:54:17.000Z,87.02
2022-11-27T09:55:18.000Z,87.34
2022-11-27T09:56:11.000Z,87.33
2022-11-27T09:57:14.000Z,87.20
2022-11-27T09:58:16.000Z,86.94
2022-11-27T09:59:15.000Z,87.42
2022-11-27T10:00:14.000Z,87.48
2022-11-27T10:01:19.000Z,87.49
2022-11-27T10:02:14.000Z,87.43
2022-11-27T10:03:14.000Z,87.34
2022-11-27T10:04:13.000Z,87.21
2022-11-27T10:05:20.000Z,86.83
2022-11-27T10:06:28.000Z,87.14
2022-11-27T10:07:31.000Z,86.90
2022-11-27T10:08:22.000Z,86.96
2022-11-27T10:09:29.000Z,86.77
2022-11-27T10:10:31.000Z,86.89
2022-11-27T10:11:18.000Z,86.64
2022-11-27T10:12:21.000Z,86.40
2022-11-27T10:13:24.000Z,86.72
2022-11-27T10:14:18.000Z,86.94
2022-11-27T10:15:29.000Z,86.34
2022-11-27T10:16:28.000Z,86.24
2022-11-27T10:17:15.000Z,86.30
2022-11-27T10:18:27.000Z,86.22
2022-11-27T10:19:28.000Z,85.56
2022-11-27T10:20:30.000Z,85.88
2022-11-27T10:21:22.000Z,86.18
2022-11-27T10:22:20.000Z,85.86
2022-11-27T10:23:21.000Z,86.01
2022-11-27T10:24:21.000Z,85.73
2022-11-27T10:25:26.000Z,85.82
2022-11-27T10:26:16.000Z,86.11
2022-11-27T10:27:19.000Z,86.13
2022-11-27T10:28:28.000Z,85.89
2022-11-27T10:29:27.000Z,86.00
2022-11-27T10:30:15.000Z,85.89
2022-11-27T10:31:18.000Z,86.13
2022-11-27T10:32:19.000Z,86.38
2022-11-27T10:33:17.000Z,86.11
2022-11-27T10:34:23.000Z,86.05
2022-11-27T10:35:14.000Z,86.20
2022-11-27T10:36:16.000Z,86.11
2022-11-27T10:37:19.000Z,85.81
2022-11-27T10:38:14.000Z,85.64
2022-11-27T10:39:17.000Z,85.51
2022-11-27T10:40:26.000Z,85.36
2022-11-27T10:41:25.000Z,85.61
2022-11-27T10:42:13.000Z,85.17
2022-11-27T10:43:17.000Z,85.46
2022-11-27T10:44:29.000Z,85.52
2022-11-27T10:45:23.000Z,85.60
2022-11-27T10:46:15.000Z,85.51
2022-11-27T10:47:11.000Z,85.58
2022-11-27T10:48:09.000Z,85.54
2022-11-27T10:49:09.000Z,85.27
2022-11-27T10:50:13.000Z,85.58
2022-11-27T10:51:15.000Z,85.27
2022-11-27T10:52:17.000Z,85.26
2022-11-27T10:53:18.000Z,85.54
2022-11-27T10:54:20.000Z,85.24
2022-11-27T10:55:23.000Z,85.32
2022-11-27T10:56:26.000Z,85.13
2022-11-27T10:57:18.000Z,85.11
2022-11-27T10:58:39.000Z,84.88
2022-11-27T10:59:14.000Z,84.88
2022-11-27T11:00:17.000Z,84.80
2022-11-27T11:01:12.000Z,84.36
2022-11-27T11:02:32.000Z,84.87
2022-11-27T11:03:16.000Z,84.59
2022-11-27T11:04:12.000Z,84.39
2022-11-27T11:05:21.000Z,84.49
2022-11-27T11:06:19.000Z,84.28
2022-11-27T11:07:18.000Z,84.18
2022-11-27T11:08:18.000Z,84.16
2022-11-27T11:09:15.000Z,84.03
2022-11-27T11:10:18.000Z,84.14
2022-11-27T11:11:08.000Z,83.80
2022-11-27T11:12:16.000Z,83.95
2022-11-27T11:13:17.000Z,84.01
2022-11-27T11:14:14.000Z,84.17
2022-11-27T11:15:09.000Z,83.58
2022-11-27T11:16:15.000Z,83.38
2022-11-27T11:17:14.000Z,83.09
2022-11-27T11:18:15.000Z,83.03
2022-11-27T11:19:18.000Z,82.13
2022-11-27T11:20:23.000Z,82.06
2022-11-27T11:21:17.000Z,80.85
2022-11-27T11:22:13.000Z,81.64
2022-11-27T11:23:20.000Z,81.35
2022-11-27T11:24:21.000Z,81.38
2022-11-27T11:25:15.000Z,81.29
2022-11-27T11:26:22.000Z,80.49
2022-11-27T11:27:15.000Z,80.03
2022-11-27T11:28:16.000Z,79.68
2022-11-27T11:29:26.000Z,78.95
2022-11-27T11:30:21.000Z,79.36
2022-11-27T11:31:13.000Z,79.50
2022-11-27T11:32:31.000Z,78.89
2022-11-27T11:33:12.000Z,78.12
2022-11-27T11:34:18.000Z,79.31
2022-11-27T11:35:24.000Z,77.92
2022-11-27T11:36:09.000Z,77.98
2022-11-27T11:37:19.000Z,78.13
2022-11-27T11:38:14.000Z,77.72
2022-11-27T11:39:22.000Z,77.27
2022-11-27T11:40:29.000Z,77.73
2022-11-27T11:41:09.000Z,77.56
2022-11-27T11:42:17.000Z,77.40
2022-11-27T11:43:20.000Z,78.08
2022-11-27T11:44:19.000Z,77.68
2022-11-27T11:45:17.000Z,77.97
2022-11-27T11:46:18.000Z,77.40
2022-11-27T11:47:17.000Z,76.60
2022-11-27T11:48:19.000Z,76.93
2022-11-27T11:49:19.000Z,77.40
2022-11-27T11:50:11.000Z,77.41
2022-11-27T11:51:18.000Z,77.63
2022-11-27T11:52:18.000Z,76.72
2022-11-27T11:53:19.000Z,77.43
2022-11-27T11:54:19.000Z,76.69
2022-11-27T11:55:25.000Z,76.98
2022-11-27T11:56:24.000Z,77.31
2022-11-27T11:57:38.000Z,77.51
2022-11-27T11:58:33.000Z,77.67
2022-11-27T11:59:19.000Z,77.49
2022-11-27T12:00:35.000Z,77.39
2022-11-27T12:01:19.000Z,77.17
2022-11-27T12:02:19.000Z,77.48
2022-11-27T12:03:24.000Z,77.94
2022-11-27T12:04:32.000Z,77.74
2022-11-27T12:05:21.000Z,77.87
2022-11-27T12:06:32.000Z,77.87
2022-11-27T12:07:19.000Z,78.48
2022-11-27T12:08:19.000Z,77.13
2022-11-27T12:09:19.000Z,77.68
2022-11-27T12:10:22.000Z,77.39
2022-11-27T12:11:13.000Z,77.50
2022-11-27T12:12:44.000Z,77.33
2022-11-27T12:13:19.000Z,77.68
2022-11-27T12:14:32.000Z,77.14
2022-11-27T12:15:27.000Z,77.55
2022-11-27T12:16:18.000Z,76.82
2022-11-27T12:17:24.000Z,76.57
2022-11-27T12:18:22.000Z,76.58
2022-11-27T12:19:18.000Z,76.53
2022-11-27T12:20:19.000Z,77.05
2022-11-27T12:21:18.000Z,77.09
2022-11-27T12:22:25.000Z,77.35
2022-11-27T12:23:22.000Z,77.69
2022-11-27T12:24:23.000Z,77.39
2022-11-27T12:25:18.000Z,77.10
2022-11-27T12:26:28.000Z,77.31
2022-11-27T12:27:18.000Z,77.46
2022-11-27T12:28:25.000Z,77.44
2022-11-27T12:29:28.000Z,77.22
2022-11-27T12:30:15.000Z,76.85
2022-11-27T12:31:19.000Z,76.35
2022-11-27T12:32:18.000Z,75.77
2022-11-27T12:33:19.000Z,75.56
2022-11-27T12:34:18.000Z,76.51
2022-11-27T12:35:28.000Z,76.21
2022-11-27T12:36:21.000Z,76.80
2022-11-27T12:37:18.000Z,76.22
2022-11-27T12:38:35.000Z,76.74
2022-11-27T12:39:18.000Z,76.35
2022-11-27T12:40:18.000Z,75.93
2022-11-27T12:41:18.000Z,76.11
2022-11-27T12:42:29.000Z,76.24
2022-11-27T12:43:22.000Z,75.52
2022-11-27T12:44:19.000Z,76.28
2022-11-27T12:45:21.000Z,75.72
2022-11-27T12:46:14.000Z,75.86
2022-11-27T12:47:17.000Z,75.80
2022-11-27T12:48:19.000Z,75.54
2022-11-27T12:49:26.000Z,75.61
2022-11-27T12:50:19.000Z,75.54
2022-11-27T12:51:18.000Z,75.45
2022-11-27T12:52:17.000Z,75.93